Time;durP1;ratioP1;P1;durP2;ratioP2;P2;SDS_P1;SDS_P2;PMS_P1;PMS_P2;Temp;Humidity;BMP_temperature;BMP_pressure;BME280_temperature;BME280_humidity;BME280_pressure;Samples;Min_cycle;Max_cycle;Signal;HPM_P1;HPM_P2
2023/06/01 00:04:32;;;;;;;;;;;16.60;99.90;;;;;;20887744;28;19960;-76
2023/06/01 00:14:33;;;;;;;;;;;16.40;99.90;;;;;;20830886;28;19962;-76
2023/06/01 00:24:33;;;;;;;;;;;16.20;99.90;;;;;;20838520;28;19914;-76
2023/06/01 00:34:34;;;;;;;;;;;16.00;99.90;;;;;;20869321;28;20073;-76
2023/06/01 00:44:35;;;;;;;;;;;15.50;99.90;;;;;;20855912;28;19917;-77
2023/06/01 00:54:35;;;;;;;;;;;15.30;99.90;;;;;;20809055;28;20423;-77
2023/06/01 01:04:37;;;;;;;;;;;14.90;99.90;;;;;;20856276;28;19913;-76
2023/06/01 01:14:58;;;;;;;;;;;14.30;99.90;;;;;;20891073;28;19924;-76
2023/06/01 01:25:12;;;;;;;;;;;14.20;99.90;;;;;;20841714;28;19972;-76
2023/06/01 01:35:13;;;;;;;;;;;14.30;99.90;;;;;;20823998;28;19974;-76
2023/06/01 01:45:15;;;;;;;;;;;13.60;99.90;;;;;;20828141;28;19959;-77
2023/06/01 01:55:17;;;;;;;;;;;13.10;99.90;;;;;;20840527;28;19921;-76
2023/06/01 02:05:18;;;;;;;;;;;13.20;99.90;;;;;;20839707;28;20006;-77
2023/06/01 02:15:19;;;;;;;;;;;12.90;99.90;;;;;;20838991;28;20272;-76
2023/06/01 02:25:19;;;;;;;;;;;12.70;99.90;;;;;;20855421;28;19913;-77
2023/06/01 02:35:20;;;;;;;;;;;12.50;99.90;;;;;;20920915;28;19917;-76
2023/06/01 02:45:21;;;;;;;;;;;12.40;99.90;;;;;;20902321;28;19912;-76
2023/06/01 02:55:22;;;;;;;;;;;12.40;99.90;;;;;;20839399;28;20400;-76
2023/06/01 03:05:35;;;;;;;;;;;12.30;99.90;;;;;;20817858;28;20386;-76
2023/06/01 03:16:02;;;;;;;;;;;12.00;99.90;;;;;;20817878;28;19963;-76
2023/06/01 03:26:04;;;;;;;;;;;11.90;99.90;;;;;;20817010;28;19913;-76
2023/06/01 03:36:06;;;;;;;;;;;11.50;99.90;;;;;;20830463;28;19917;-77
2023/06/01 03:46:08;;;;;;;;;;;11.70;99.90;;;;;;20829422;28;19956;-77
2023/06/01 03:56:09;;;;;;;;;;;11.60;99.90;;;;;;20827983;28;19917;-77
2023/06/01 04:06:17;;;;;;;;;;;11.60;99.90;;;;;;20827066;28;19913;-77
2023/06/01 04:16:20;;;;;;;;;;;11.70;99.90;;;;;;20825927;28;20403;-77
2023/06/01 04:26:21;;;;;;;;;;;11.70;99.90;;;;;;20845233;28;19920;-77
2023/06/01 04:36:22;;;;;;;;;;;11.70;99.90;;;;;;20890698;28;19924;-77
2023/06/01 04:46:27;;;;;;;;;;;12.10;99.90;;;;;;20890212;28;19917;-77
2023/06/01 04:56:35;;;;;;;;;;;12.60;99.90;;;;;;20843053;28;19924;-76
2023/06/01 05:06:36;;;;;;;;;;;13.00;99.90;;;;;;20888171;28;20263;-77
2023/06/01 05:16:36;;;;;;;;;;;13.40;99.90;;;;;;20887911;28;19960;-76
2023/06/01 05:26:38;;;;;;;;;;;13.80;99.90;;;;;;20823629;28;19913;-76
2023/06/01 05:36:39;;;;;;;;;;;14.20;99.90;;;;;;20857981;28;19924;-78
2023/06/01 05:46:40;;;;;;;;;;;14.50;99.90;;;;;;20868201;28;19991;-76
2023/06/01 05:56:41;;;;;;;;;;;14.80;99.90;;;;;;20879577;28;19967;-76
2023/06/01 06:06:44;;;;;;;;;;;15.40;99.90;;;;;;20885711;28;19920;-76
2023/06/01 06:16:45;;;;;;;;;;;15.70;99.90;;;;;;20903287;28;20371;-76
2023/06/01 06:26:47;;;;;;;;;;;16.10;99.90;;;;;;20839850;28;19978;-76
2023/06/01 06:36:47;;;;;;;;;;;16.50;99.90;;;;;;20831832;28;19917;-77
2023/06/01 06:46:48;;;;;;;;;;;17.10;99.90;;;;;;20867450;28;20267;-76
2023/06/01 06:56:49;;;;;;;;;;;17.40;99.90;;;;;;20875751;28;20379;-77
2023/06/01 07:06:51;;;;;;;;;;;18.50;99.90;;;;;;20853720;28;19959;-75
2023/06/01 07:16:52;;;;;;;;;;;19.20;99.90;;;;;;20829077;28;19940;-77
2023/06/01 07:26:53;;;;;;;;;;;19.50;99.90;;;;;;20827206;28;19968;-77
2023/06/01 07:36:58;;;;;;;;;;;20.20;99.90;;;;;;20851871;28;19917;-78
2023/06/01 07:46:59;;;;;;;;;;;20.90;99.90;;;;;;20847232;28;19975;-77
2023/06/01 07:57:00;;;;;;;;;;;21.00;99.90;;;;;;20859632;28;19917;-77
2023/06/01 08:07:03;;;;;;;;;;;21.20;99.90;;;;;;20848707;28;19913;-78
2023/06/01 08:17:06;;;;;;;;;;;21.80;99.90;;;;;;20841963;28;19924;-78
2023/06/01 08:27:21;;;;;;;;;;;22.60;99.90;;;;;;20822454;28;19917;-76
2023/06/01 08:37:21;;;;;;;;;;;23.10;99.90;;;;;;20820386;28;19992;-77
2023/06/01 08:47:26;;;;;;;;;;;23.80;99.90;;;;;;20833338;28;19920;-76
2023/06/01 08:57:27;;;;;;;;;;;24.00;99.90;;;;;;20827550;28;19927;-78
2023/06/01 09:07:28;;;;;;;;;;;24.70;99.80;;;;;;20820155;28;19920;-75
2023/06/01 09:17:28;;;;;;;;;;;25.30;99.30;;;;;;20822132;28;20398;-76
2023/06/01 09:27:29;;;;;;;;;;;26.00;97.60;;;;;;20820179;28;19920;-76
2023/06/01 09:37:30;;;;;;;;;;;25.50;98.30;;;;;;20819637;28;19933;-76
2023/06/01 09:47:31;;;;;;;;;;;26.40;97.10;;;;;;20821865;28;20376;-76
2023/06/01 09:57:31;;;;;;;;;;;26.20;98.30;;;;;;20820382;28;19935;-77
2023/06/01 10:07:33;;;;;;;;;;;27.30;96.50;;;;;;20836296;28;19913;-76
2023/06/01 10:17:34;;;;;;;;;;;27.50;94.70;;;;;;20823168;28;19917;-77
2023/06/01 10:27:53;;;;;;;;;;;28.00;93.20;;;;;;20837131;28;19998;-76
2023/06/01 10:38:06;;;;;;;;;;;28.30;94.10;;;;;;20814498;28;19923;-78
2023/06/01 10:48:11;;;;;;;;;;;28.20;94.20;;;;;;20834806;28;19917;-77
2023/06/01 10:58:26;;;;;;;;;;;28.70;93.20;;;;;;20833714;28;19917;-76
2023/06/01 11:08:30;;;;;;;;;;;28.20;93.70;;;;;;20831725;28;19913;-76
2023/06/01 11:18:42;;;;;;;;;;;29.30;91.80;;;;;;20829030;28;20342;-76
2023/06/01 11:28:44;;;;;;;;;;;29.20;92.80;;;;;;20833434;28;19917;-77
2023/06/01 11:38:45;;;;;;;;;;;29.80;90.00;;;;;;20846630;28;19924;-76
2023/06/01 11:49:00;;;;;;;;;;;29.20;90.10;;;;;;20865426;28;20269;-76
2023/06/01 11:59:02;;;;;;;;;;;29.70;87.10;;;;;;20860383;28;19923;-76
2023/06/01 12:09:06;;;;;;;;;;;30.40;86.80;;;;;;20893818;28;19921;-76
2023/06/01 12:19:10;;;;;;;;;;;30.10;87.60;;;;;;20861651;28;20291;-77
2023/06/01 12:29:11;;;;;;;;;;;29.40;91.30;;;;;;20839601;28;19952;-76
2023/06/01 12:39:12;;;;;;;;;;;30.70;90.70;;;;;;20882250;28;19992;-76
2023/06/01 12:49:14;;;;;;;;;;;31.00;83.80;;;;;;20835780;28;19925;-76
2023/06/01 12:59:15;;;;;;;;;;;30.10;88.00;;;;;;20840155;28;19917;-77
2023/06/01 13:09:17;;;;;;;;;;;30.90;87.70;;;;;;20908388;28;19966;-78
2023/06/01 13:19:18;;;;;;;;;;;30.10;87.70;;;;;;20882815;28;19986;-77
2023/06/01 13:29:21;;;;;;;;;;;30.90;83.90;;;;;;20878965;28;21353;-77
2023/06/01 13:39:21;;;;;;;;;;;31.10;85.60;;;;;;20880137;28;19956;-76
2023/06/01 13:49:23;;;;;;;;;;;28.70;87.30;;;;;;20833527;28;19960;-77
2023/06/01 13:59:23;;;;;;;;;;;29.50;88.00;;;;;;20821535;28;19924;-77
2023/06/01 14:09:24;;;;;;;;;;;30.60;85.90;;;;;;20817238;28;20276;-77
2023/06/01 14:19:26;;;;;;;;;;;30.50;84.80;;;;;;20861670;28;19917;-77
2023/06/01 14:29:27;;;;;;;;;;;29.70;85.40;;;;;;20861434;28;19917;-77
2023/06/01 14:39:28;;;;;;;;;;;29.40;85.50;;;;;;20902399;28;19939;-77
2023/06/01 14:49:28;;;;;;;;;;;29.70;90.20;;;;;;20831714;28;19913;-76
2023/06/01 14:59:29;;;;;;;;;;;28.40;92.60;;;;;;20832890;28;19917;-76
2023/06/01 15:09:30;;;;;;;;;;;28.80;92.80;;;;;;20833901;28;19920;-77
2023/06/01 15:19:31;;;;;;;;;;;29.00;92.90;;;;;;20832787;28;19921;-77
2023/06/01 15:29:31;;;;;;;;;;;28.90;92.40;;;;;;20831979;28;20234;-77
2023/06/01 15:39:33;;;;;;;;;;;28.50;93.10;;;;;;20831049;28;20024;-77
2023/06/01 15:49:34;;;;;;;;;;;27.70;92.90;;;;;;20830591;28;19925;-77
2023/06/01 15:59:34;;;;;;;;;;;27.70;94.30;;;;;;20829453;28;19923;-76
2023/06/01 16:09:35;;;;;;;;;;;28.10;93.60;;;;;;20829038;28;19913;-76
2023/06/01 16:19:36;;;;;;;;;;;27.80;93.90;;;;;;20828292;28;19971;-75
2023/06/01 16:29:37;;;;;;;;;;;27.80;94.90;;;;;;20843783;28;19913;-75
2023/06/01 16:39:37;;;;;;;;;;;27.20;95.20;;;;;;20891331;28;20360;-76
2023/06/01 16:49:40;;;;;;;;;;;27.30;94.90;;;;;;20834926;28;19940;-76
2023/06/01 16:59:41;;;;;;;;;;;26.80;95.40;;;;;;20825303;28;19917;-76
2023/06/01 17:09:42;;;;;;;;;;;26.90;95.70;;;;;;20861177;28;19913;-75
2023/06/01 17:19:42;;;;;;;;;;;26.50;96.00;;;;;;20832335;28;19925;-75
2023/06/01 17:29:43;;;;;;;;;;;26.20;96.30;;;;;;20828679;28;20010;-76
2023/06/01 17:39:44;;;;;;;;;;;26.60;97.10;;;;;;20881556;28;19924;-76
2023/06/01 17:49:44;;;;;;;;;;;26.50;96.70;;;;;;20830426;28;20372;-76
2023/06/01 17:59:45;;;;;;;;;;;25.90;96.90;;;;;;20821372;28;19917;-76
2023/06/01 18:09:48;;;;;;;;;;;25.70;98.00;;;;;;20844213;28;20390;-76
2023/06/01 18:19:48;;;;;;;;;;;25.10;99.90;;;;;;20862219;28;19996;-76
2023/06/01 18:29:49;;;;;;;;;;;23.80;99.90;;;;;;20909786;28;20010;-76
2023/06/01 18:39:50;;;;;;;;;;;23.10;99.90;;;;;;20876751;28;19946;-76
2023/06/01 18:49:50;;;;;;;;;;;23.00;99.90;;;;;;20886957;28;19916;-76
2023/06/01 18:59:51;;;;;;;;;;;22.60;99.90;;;;;;20864303;28;20411;-76
2023/06/01 19:09:52;;;;;;;;;;;22.50;99.90;;;;;;20858258;28;19920;-75
2023/06/01 19:19:52;;;;;;;;;;;22.40;99.90;;;;;;20815967;28;19917;-76
2023/06/01 19:29:53;;;;;;;;;;;21.80;99.90;;;;;;20834967;28;20012;-75
2023/06/01 19:39:54;;;;;;;;;;;21.50;99.90;;;;;;20837002;28;19923;-75
2023/06/01 19:49:55;;;;;;;;;;;20.90;99.90;;;;;;20897520;28;19966;-76
2023/06/01 19:59:56;;;;;;;;;;;20.10;99.90;;;;;;20861615;28;20003;-76
2023/06/01 20:09:57;;;;;;;;;;;19.60;99.90;;;;;;20877630;28;21835;-76
2023/06/01 20:19:57;;;;;;;;;;;19.60;99.90;;;;;;20893378;28;20427;-76
2023/06/01 20:30:00;;;;;;;;;;;19.50;99.90;;;;;;20912961;28;19921;-75
2023/06/01 20:40:01;;;;;;;;;;;19.90;99.90;;;;;;20918899;28;19921;-78
2023/06/01 20:50:02;;;;;;;;;;;19.90;99.90;;;;;;20924011;28;20010;-78
2023/06/01 21:00:03;;;;;;;;;;;19.80;99.90;;;;;;20904262;28;19916;-78
2023/06/01 21:10:03;;;;;;;;;;;19.80;99.90;;;;;;20918257;28;19917;-77
2023/06/01 21:20:05;;;;;;;;;;;19.40;99.90;;;;;;20886103;28;19917;-78
2023/06/01 21:30:05;;;;;;;;;;;19.40;99.90;;;;;;20903662;28;20368;-77
2023/06/01 21:40:07;;;;;;;;;;;19.40;99.90;;;;;;20922730;28;19964;-78
2023/06/01 21:50:08;;;;;;;;;;;19.30;99.90;;;;;;20874937;28;19913;-78
2023/06/01 22:00:12;;;;;;;;;;;18.80;99.90;;;;;;20862866;28;19960;-78
2023/06/01 22:10:13;;;;;;;;;;;18.70;99.90;;;;;;20886769;28;20447;-78
2023/06/01 22:20:13;;;;;;;;;;;18.50;99.90;;;;;;20943898;28;19940;-78
2023/06/01 22:30:14;;;;;;;;;;;18.70;99.90;;;;;;20936873;28;20379;-78
2023/06/01 22:40:15;;;;;;;;;;;18.60;99.90;;;;;;20846167;28;19917;-77
2023/06/01 22:50:18;;;;;;;;;;;18.50;99.90;;;;;;20851794;28;19913;-78
2023/06/01 23:00:19;;;;;;;;;;;18.30;99.90;;;;;;20882900;28;19921;-78
2023/06/01 23:10:20;;;;;;;;;;;17.80;99.90;;;;;;20927385;28;20007;-77
2023/06/01 23:20:21;;;;;;;;;;;17.60;99.90;;;;;;20925690;28;19923;-77
2023/06/01 23:30:21;;;;;;;;;;;16.80;99.90;;;;;;20898527;28;19920;-77
2023/06/01 23:40:22;;;;;;;;;;;17.20;99.90;;;;;;20836680;28;19964;-77
2023/06/01 23:50:23;;;;;;;;;;;17.30;99.90;;;;;;20850656;28;20271;-76
